Terminal Aerodrome Forecast
Issued by NWS

Home | Current Version | Previous Version | Text Only | Print | Product List | Glossary On
Versions: 1 2 3 4 5 6 7 8 9 10 11 12 13 14 15 16 17 18 19 20 21 22 23 24 25 26 27 28 29 30 31
000
FTUS43 KBIS 280719 AAA
TAFDIK
TAF AMD
KDIK 280719Z 2807/0106 09006KT P6SM SCT005 OVC020
     FM281800 14008KT P6SM OVC020
     FM010100 15007KT P6SM BKN035
     FM010500 22007KT P6SM BKN050=

USA.gov is the U.S. government's official web portal to all federal, state and local government web resources and services.